sensor_id;sensor_type;location;lat;lon;timestamp;temperature;humidity
21861;DHT22;11095;48.066;8.540;2022-07-29T00:02:22;16.40;99.90
21861;DHT22;11095;48.066;8.540;2022-07-29T00:04:47;16.40;99.90
21861;DHT22;11095;48.066;8.540;2022-07-29T00:07:17;16.40;99.90
21861;DHT22;11095;48.066;8.540;2022-07-29T00:09:46;16.40;99.90
21861;DHT22;11095;48.066;8.540;2022-07-29T00:12:11;16.40;99.90
21861;DHT22;11095;48.066;8.540;2022-07-29T00:14:37;16.40;99.90
21861;DHT22;11095;48.066;8.540;2022-07-29T00:17:03;16.40;99.90
21861;DHT22;11095;48.066;8.540;2022-07-29T00:19:28;16.30;99.90
21861;DHT22;11095;48.066;8.540;2022-07-29T00:21:54;16.30;99.90
21861;DHT22;11095;48.066;8.540;2022-07-29T00:24:20;16.30;99.90
21861;DHT22;11095;48.066;8.540;2022-07-29T00:26:45;16.40;99.90
21861;DHT22;11095;48.066;8.540;2022-07-29T00:29:11;16.40;99.90
21861;DHT22;11095;48.066;8.540;2022-07-29T00:31:36;16.40;99.90
21861;DHT22;11095;48.066;8.540;2022-07-29T00:34:02;16.40;99.90
21861;DHT22;11095;48.066;8.540;2022-07-29T00:36:28;16.40;99.90
21861;DHT22;11095;48.066;8.540;2022-07-29T00:38:54;16.40;99.90
21861;DHT22;11095;48.066;8.540;2022-07-29T00:41:20;16.40;99.90
21861;DHT22;11095;48.066;8.540;2022-07-29T00:43:46;16.40;99.90
21861;DHT22;11095;48.066;8.540;2022-07-29T00:46:12;16.30;99.90
21861;DHT22;11095;48.066;8.540;2022-07-29T00:48:37;16.30;99.90
21861;DHT22;11095;48.066;8.540;2022-07-29T00:51:05;16.30;99.90
21861;DHT22;11095;48.066;8.540;2022-07-29T00:53:31;16.30;99.90
21861;DHT22;11095;48.066;8.540;2022-07-29T00:55:57;16.30;99.90
21861;DHT22;11095;48.066;8.540;2022-07-29T00:58:24;16.30;99.90
21861;DHT22;11095;48.066;8.540;2022-07-29T01:00:49;16.20;99.90
21861;DHT22;11095;48.066;8.540;2022-07-29T01:03:15;16.30;99.90
21861;DHT22;11095;48.066;8.540;2022-07-29T01:05:43;16.30;99.90
21861;DHT22;11095;48.066;8.540;2022-07-29T01:08:11;16.30;99.90
21861;DHT22;11095;48.066;8.540;2022-07-29T01:10:38;16.20;99.90
21861;DHT22;11095;48.066;8.540;2022-07-29T01:13:05;16.20;99.90
21861;DHT22;11095;48.066;8.540;2022-07-29T01:15:31;16.20;99.90
21861;DHT22;11095;48.066;8.540;2022-07-29T01:18:03;16.20;99.90
21861;DHT22;11095;48.066;8.540;2022-07-29T01:29:04;16.20;99.90
21861;DHT22;11095;48.066;8.540;2022-07-29T01:34:18;16.20;99.90
21861;DHT22;11095;48.066;8.540;2022-07-29T01:36:52;16.20;99.90
21861;DHT22;11095;48.066;8.540;2022-07-29T01:39:39;16.20;99.90
21861;DHT22;11095;48.066;8.540;2022-07-29T01:45:06;16.10;99.90
21861;DHT22;11095;48.066;8.540;2022-07-29T01:47:40;16.10;99.90
21861;DHT22;11095;48.066;8.540;2022-07-29T01:50:16;16.10;99.90
21861;DHT22;11095;48.066;8.540;2022-07-29T01:52:49;16.10;99.90
21861;DHT22;11095;48.066;8.540;2022-07-29T01:55:20;16.00;99.90
21861;DHT22;11095;48.066;8.540;2022-07-29T01:57:49;16.00;99.90
21861;DHT22;11095;48.066;8.540;2022-07-29T02:00:15;16.00;99.90
21861;DHT22;11095;48.066;8.540;2022-07-29T02:02:43;16.00;99.90
21861;DHT22;11095;48.066;8.540;2022-07-29T02:05:12;16.00;99.90
21861;DHT22;11095;48.066;8.540;2022-07-29T02:07:41;16.00;99.90
21861;DHT22;11095;48.066;8.540;2022-07-29T02:10:09;16.00;99.90
21861;DHT22;11095;48.066;8.540;2022-07-29T02:12:36;16.00;99.90
21861;DHT22;11095;48.066;8.540;2022-07-29T02:15:04;16.00;99.90
21861;DHT22;11095;48.066;8.540;2022-07-29T02:17:42;16.00;99.90
21861;DHT22;11095;48.066;8.540;2022-07-29T02:20:09;15.90;99.90
21861;DHT22;11095;48.066;8.540;2022-07-29T02:22:37;15.90;99.90
21861;DHT22;11095;48.066;8.540;2022-07-29T02:25:05;15.90;99.90
21861;DHT22;11095;48.066;8.540;2022-07-29T02:27:33;15.90;99.90
21861;DHT22;11095;48.066;8.540;2022-07-29T02:30:02;15.80;99.90
21861;DHT22;11095;48.066;8.540;2022-07-29T02:32:29;15.80;99.90
21861;DHT22;11095;48.066;8.540;2022-07-29T02:34:56;15.80;99.90
21861;DHT22;11095;48.066;8.540;2022-07-29T02:37:23;15.90;99.90
21861;DHT22;11095;48.066;8.540;2022-07-29T02:39:52;15.90;99.90
21861;DHT22;11095;48.066;8.540;2022-07-29T02:42:21;15.90;99.90
21861;DHT22;11095;48.066;8.540;2022-07-29T02:44:48;15.90;99.90
21861;DHT22;11095;48.066;8.540;2022-07-29T02:49:50;15.90;99.90
21861;DHT22;11095;48.066;8.540;2022-07-29T02:52:34;15.80;99.90
21861;DHT22;11095;48.066;8.540;2022-07-29T02:57:51;15.80;99.90
21861;DHT22;11095;48.066;8.540;2022-07-29T03:00:19;15.80;99.90
21861;DHT22;11095;48.066;8.540;2022-07-29T03:02:51;15.80;99.90
21861;DHT22;11095;48.066;8.540;2022-07-29T03:05:19;15.80;99.90
21861;DHT22;11095;48.066;8.540;2022-07-29T03:07:51;15.80;99.90
21861;DHT22;11095;48.066;8.540;2022-07-29T03:10:18;15.80;99.90
21861;DHT22;11095;48.066;8.540;2022-07-29T03:12:44;15.70;99.90
21861;DHT22;11095;48.066;8.540;2022-07-29T03:15:11;15.70;99.90
21861;DHT22;11095;48.066;8.540;2022-07-29T03:17:37;15.70;99.90
21861;DHT22;11095;48.066;8.540;2022-07-29T03:20:03;15.70;99.90
21861;DHT22;11095;48.066;8.540;2022-07-29T03:22:30;15.70;99.90
21861;DHT22;11095;48.066;8.540;2022-07-29T03:24:55;15.70;99.90
21861;DHT22;11095;48.066;8.540;2022-07-29T03:27:21;15.70;99.90
21861;DHT22;11095;48.066;8.540;2022-07-29T03:29:47;15.70;99.90
21861;DHT22;11095;48.066;8.540;2022-07-29T03:32:12;15.60;99.90
21861;DHT22;11095;48.066;8.540;2022-07-29T03:34:38;15.60;99.90
21861;DHT22;11095;48.066;8.540;2022-07-29T03:37:05;15.60;99.90
21861;DHT22;11095;48.066;8.540;2022-07-29T03:39:35;15.60;99.90
21861;DHT22;11095;48.066;8.540;2022-07-29T03:42:02;15.50;99.90
21861;DHT22;11095;48.066;8.540;2022-07-29T03:44:31;15.50;99.90
21861;DHT22;11095;48.066;8.540;2022-07-29T03:46:59;15.50;99.90
21861;DHT22;11095;48.066;8.540;2022-07-29T03:49:27;15.50;99.90
21861;DHT22;11095;48.066;8.540;2022-07-29T03:51:55;15.50;99.90
21861;DHT22;11095;48.066;8.540;2022-07-29T03:54:20;15.50;99.90
21861;DHT22;11095;48.066;8.540;2022-07-29T03:56:47;15.50;99.90
21861;DHT22;11095;48.066;8.540;2022-07-29T03:59:15;15.60;99.90
21861;DHT22;11095;48.066;8.540;2022-07-29T04:01:42;15.60;99.90
21861;DHT22;11095;48.066;8.540;2022-07-29T04:04:08;15.70;99.90
21861;DHT22;11095;48.066;8.540;2022-07-29T04:06:39;15.70;99.90
21861;DHT22;11095;48.066;8.540;2022-07-29T04:09:05;15.70;99.90
21861;DHT22;11095;48.066;8.540;2022-07-29T04:11:30;15.80;99.90
21861;DHT22;11095;48.066;8.540;2022-07-29T04:13:56;15.90;99.90
21861;DHT22;11095;48.066;8.540;2022-07-29T04:16:22;16.10;99.90
21861;DHT22;11095;48.066;8.540;2022-07-29T04:18:47;16.50;99.90
21861;DHT22;11095;48.066;8.540;2022-07-29T04:21:13;17.00;99.90
21861;DHT22;11095;48.066;8.540;2022-07-29T04:23:38;17.50;99.90
21861;DHT22;11095;48.066;8.540;2022-07-29T04:26:04;18.10;99.90
21861;DHT22;11095;48.066;8.540;2022-07-29T04:28:30;18.70;99.90
21861;DHT22;11095;48.066;8.540;2022-07-29T04:30:55;19.10;99.90
21861;DHT22;11095;48.066;8.540;2022-07-29T04:33:21;19.40;99.90
21861;DHT22;11095;48.066;8.540;2022-07-29T04:35:46;19.40;99.90
21861;DHT22;11095;48.066;8.540;2022-07-29T04:38:12;19.30;99.90
21861;DHT22;11095;48.066;8.540;2022-07-29T04:40:38;19.00;99.90
21861;DHT22;11095;48.066;8.540;2022-07-29T04:43:03;18.80;99.90
21861;DHT22;11095;48.066;8.540;2022-07-29T04:45:29;18.50;99.90
21861;DHT22;11095;48.066;8.540;2022-07-29T04:47:55;18.30;99.90
21861;DHT22;11095;48.066;8.540;2022-07-29T04:50:21;18.20;99.90
21861;DHT22;11095;48.066;8.540;2022-07-29T04:52:47;18.10;99.90
21861;DHT22;11095;48.066;8.540;2022-07-29T04:55:13;18.40;99.90
21861;DHT22;11095;48.066;8.540;2022-07-29T04:57:38;18.90;99.90
21861;DHT22;11095;48.066;8.540;2022-07-29T05:00:05;19.20;99.90
21861;DHT22;11095;48.066;8.540;2022-07-29T05:02:31;19.30;99.90
21861;DHT22;11095;48.066;8.540;2022-07-29T05:04:57;19.30;99.90
21861;DHT22;11095;48.066;8.540;2022-07-29T05:07:23;19.40;99.90
21861;DHT22;11095;48.066;8.540;2022-07-29T05:09:50;19.40;99.90
21861;DHT22;11095;48.066;8.540;2022-07-29T05:12:16;19.30;99.90
21861;DHT22;11095;48.066;8.540;2022-07-29T05:14:41;19.30;99.90
21861;DHT22;11095;48.066;8.540;2022-07-29T05:17:07;19.10;99.90
21861;DHT22;11095;48.066;8.540;2022-07-29T05:19:32;19.00;99.90
21861;DHT22;11095;48.066;8.540;2022-07-29T05:21:58;18.90;99.90
21861;DHT22;11095;48.066;8.540;2022-07-29T05:24:25;18.90;99.90
21861;DHT22;11095;48.066;8.540;2022-07-29T05:26:51;18.90;99.90
21861;DHT22;11095;48.066;8.540;2022-07-29T05:29:16;18.90;99.90
21861;DHT22;11095;48.066;8.540;2022-07-29T05:31:42;19.10;99.90
21861;DHT22;11095;48.066;8.540;2022-07-29T05:34:07;19.30;99.90
21861;DHT22;11095;48.066;8.540;2022-07-29T05:36:33;19.70;99.90
21861;DHT22;11095;48.066;8.540;2022-07-29T05:38:59;20.00;99.90
21861;DHT22;11095;48.066;8.540;2022-07-29T05:41:24;20.60;99.90
21861;DHT22;11095;48.066;8.540;2022-07-29T05:43:51;22.00;99.90
21861;DHT22;11095;48.066;8.540;2022-07-29T05:46:16;23.80;99.90
21861;DHT22;11095;48.066;8.540;2022-07-29T05:48:42;24.60;99.90
21861;DHT22;11095;48.066;8.540;2022-07-29T05:51:07;25.20;99.90
21861;DHT22;11095;48.066;8.540;2022-07-29T05:53:33;25.80;99.90
21861;DHT22;11095;48.066;8.540;2022-07-29T05:56:03;26.10;99.90
21861;DHT22;11095;48.066;8.540;2022-07-29T05:58:30;26.00;99.90
21861;DHT22;11095;48.066;8.540;2022-07-29T06:00:55;25.50;99.90
21861;DHT22;11095;48.066;8.540;2022-07-29T06:03:25;24.90;99.90
21861;DHT22;11095;48.066;8.540;2022-07-29T06:05:50;24.30;99.90
21861;DHT22;11095;48.066;8.540;2022-07-29T06:08:16;24.00;99.90
21861;DHT22;11095;48.066;8.540;2022-07-29T06:10:43;23.80;99.90
21861;DHT22;11095;48.066;8.540;2022-07-29T06:13:08;23.60;99.90
21861;DHT22;11095;48.066;8.540;2022-07-29T06:15:34;23.80;99.90
21861;DHT22;11095;48.066;8.540;2022-07-29T06:18:00;24.90;99.90
21861;DHT22;11095;48.066;8.540;2022-07-29T06:20:25;26.00;99.90
21861;DHT22;11095;48.066;8.540;2022-07-29T06:22:52;26.50;99.90
21861;DHT22;11095;48.066;8.540;2022-07-29T06:25:17;26.40;99.90
21861;DHT22;11095;48.066;8.540;2022-07-29T06:27:43;26.10;99.90
21861;DHT22;11095;48.066;8.540;2022-07-29T06:30:09;25.60;99.90
21861;DHT22;11095;48.066;8.540;2022-07-29T06:32:35;25.40;99.90
21861;DHT22;11095;48.066;8.540;2022-07-29T06:35:01;25.10;99.90
21861;DHT22;11095;48.066;8.540;2022-07-29T06:37:27;24.60;99.90
21861;DHT22;11095;48.066;8.540;2022-07-29T06:39:52;24.20;99.90
21861;DHT22;11095;48.066;8.540;2022-07-29T06:42:42;23.90;99.90
21861;DHT22;11095;48.066;8.540;2022-07-29T06:45:08;23.70;99.90
21861;DHT22;11095;48.066;8.540;2022-07-29T06:47:34;23.60;99.90
21861;DHT22;11095;48.066;8.540;2022-07-29T06:50:00;23.60;99.90
21861;DHT22;11095;48.066;8.540;2022-07-29T06:52:25;23.60;99.90
21861;DHT22;11095;48.066;8.540;2022-07-29T06:54:51;23.90;99.90
21861;DHT22;11095;48.066;8.540;2022-07-29T06:57:17;24.40;99.90
21861;DHT22;11095;48.066;8.540;2022-07-29T06:59:42;25.50;99.90
21861;DHT22;11095;48.066;8.540;2022-07-29T07:02:08;26.40;99.90
21861;DHT22;11095;48.066;8.540;2022-07-29T07:04:33;26.70;99.90
21861;DHT22;11095;48.066;8.540;2022-07-29T07:06:59;26.80;99.90
21861;DHT22;11095;48.066;8.540;2022-07-29T07:09:25;26.60;99.90
21861;DHT22;11095;48.066;8.540;2022-07-29T07:11:50;26.50;99.90
21861;DHT22;11095;48.066;8.540;2022-07-29T07:14:16;26.40;99.90
21861;DHT22;11095;48.066;8.540;2022-07-29T07:16:42;26.20;99.90
21861;DHT22;11095;48.066;8.540;2022-07-29T07:19:07;26.20;99.90
21861;DHT22;11095;48.066;8.540;2022-07-29T07:21:33;26.20;99.90
21861;DHT22;11095;48.066;8.540;2022-07-29T07:23:59;26.40;99.90
21861;DHT22;11095;48.066;8.540;2022-07-29T07:26:26;27.00;99.90
21861;DHT22;11095;48.066;8.540;2022-07-29T07:28:52;27.70;99.90
21861;DHT22;11095;48.066;8.540;2022-07-29T07:31:18;28.90;99.90
21861;DHT22;11095;48.066;8.540;2022-07-29T07:33:43;30.10;99.90
21861;DHT22;11095;48.066;8.540;2022-07-29T07:36:09;31.20;99.90
21861;DHT22;11095;48.066;8.540;2022-07-29T07:38:34;32.00;99.90
21861;DHT22;11095;48.066;8.540;2022-07-29T07:41:01;33.00;99.90
21861;DHT22;11095;48.066;8.540;2022-07-29T07:43:26;33.40;99.90
21861;DHT22;11095;48.066;8.540;2022-07-29T07:45:52;33.20;99.90
21861;DHT22;11095;48.066;8.540;2022-07-29T07:48:18;32.80;99.90
21861;DHT22;11095;48.066;8.540;2022-07-29T07:50:44;32.20;99.90
21861;DHT22;11095;48.066;8.540;2022-07-29T07:53:09;31.50;99.90
21861;DHT22;11095;48.066;8.540;2022-07-29T07:55:40;30.70;99.90
21861;DHT22;11095;48.066;8.540;2022-07-29T07:58:06;29.90;99.90
21861;DHT22;11095;48.066;8.540;2022-07-29T08:00:32;29.30;99.90
21861;DHT22;11095;48.066;8.540;2022-07-29T08:02:58;28.60;99.90
21861;DHT22;11095;48.066;8.540;2022-07-29T08:05:24;27.70;99.90
21861;DHT22;11095;48.066;8.540;2022-07-29T08:07:50;26.90;99.90
21861;DHT22;11095;48.066;8.540;2022-07-29T08:10:17;26.00;99.90
21861;DHT22;11095;48.066;8.540;2022-07-29T08:13:06;25.20;99.90
21861;DHT22;11095;48.066;8.540;2022-07-29T08:15:33;24.50;99.90
21861;DHT22;11095;48.066;8.540;2022-07-29T08:17:59;24.10;99.90
21861;DHT22;11095;48.066;8.540;2022-07-29T08:20:25;23.90;99.90
21861;DHT22;11095;48.066;8.540;2022-07-29T08:22:51;23.70;99.90
21861;DHT22;11095;48.066;8.540;2022-07-29T08:25:18;23.50;99.90
21861;DHT22;11095;48.066;8.540;2022-07-29T08:27:46;23.50;99.90
21861;DHT22;11095;48.066;8.540;2022-07-29T08:30:12;23.40;99.90
21861;DHT22;11095;48.066;8.540;2022-07-29T08:32:38;23.40;99.90
21861;DHT22;11095;48.066;8.540;2022-07-29T08:35:04;23.30;99.90
21861;DHT22;11095;48.066;8.540;2022-07-29T08:37:29;23.30;99.90
21861;DHT22;11095;48.066;8.540;2022-07-29T08:39:55;23.50;99.90
21861;DHT22;11095;48.066;8.540;2022-07-29T08:42:21;23.50;99.90
21861;DHT22;11095;48.066;8.540;2022-07-29T08:44:47;23.60;99.90
21861;DHT22;11095;48.066;8.540;2022-07-29T08:47:16;23.70;99.90
21861;DHT22;11095;48.066;8.540;2022-07-29T08:49:42;23.70;99.90
21861;DHT22;11095;48.066;8.540;2022-07-29T08:52:11;23.70;99.90
21861;DHT22;11095;48.066;8.540;2022-07-29T08:54:38;23.80;99.90
21861;DHT22;11095;48.066;8.540;2022-07-29T08:57:04;23.90;99.90
21861;DHT22;11095;48.066;8.540;2022-07-29T08:59:31;24.20;99.90
21861;DHT22;11095;48.066;8.540;2022-07-29T09:02:00;24.30;99.90
21861;DHT22;11095;48.066;8.540;2022-07-29T09:04:29;24.30;99.90
21861;DHT22;11095;48.066;8.540;2022-07-29T09:06:57;24.20;99.90
21861;DHT22;11095;48.066;8.540;2022-07-29T09:09:24;24.10;99.90
21861;DHT22;11095;48.066;8.540;2022-07-29T09:11:50;24.20;99.90
21861;DHT22;11095;48.066;8.540;2022-07-29T09:14:16;24.30;99.90
21861;DHT22;11095;48.066;8.540;2022-07-29T09:16:54;24.30;99.90
21861;DHT22;11095;48.066;8.540;2022-07-29T09:19:30;24.50;99.90
21861;DHT22;11095;48.066;8.540;2022-07-29T09:21:58;24.60;99.90
21861;DHT22;11095;48.066;8.540;2022-07-29T09:24:26;24.70;99.90
21861;DHT22;11095;48.066;8.540;2022-07-29T09:26:52;24.70;99.90
21861;DHT22;11095;48.066;8.540;2022-07-29T09:29:20;24.70;99.90
21861;DHT22;11095;48.066;8.540;2022-07-29T09:31:50;24.70;99.90
21861;DHT22;11095;48.066;8.540;2022-07-29T09:34:28;24.70;99.90
21861;DHT22;11095;48.066;8.540;2022-07-29T09:36:55;24.70;99.90
21861;DHT22;11095;48.066;8.540;2022-07-29T09:39:29;24.50;99.90
21861;DHT22;11095;48.066;8.540;2022-07-29T09:41:57;24.30;99.90
21861;DHT22;11095;48.066;8.540;2022-07-29T09:44:24;24.30;99.90
21861;DHT22;11095;48.066;8.540;2022-07-29T09:49:18;24.10;99.90
21861;DHT22;11095;48.066;8.540;2022-07-29T09:51:45;23.90;99.90
21861;DHT22;11095;48.066;8.540;2022-07-29T09:54:27;23.80;99.90
21861;DHT22;11095;48.066;8.540;2022-07-29T09:56:54;23.80;99.90
21861;DHT22;11095;48.066;8.540;2022-07-29T09:59:21;23.80;99.90
21861;DHT22;11095;48.066;8.540;2022-07-29T10:01:49;23.70;99.90
21861;DHT22;11095;48.066;8.540;2022-07-29T10:04:15;23.80;99.90
21861;DHT22;11095;48.066;8.540;2022-07-29T10:07:02;23.90;99.90
21861;DHT22;11095;48.066;8.540;2022-07-29T10:09:28;23.90;99.90
21861;DHT22;11095;48.066;8.540;2022-07-29T10:12:04;23.90;99.90
21861;DHT22;11095;48.066;8.540;2022-07-29T10:14:31;23.90;99.90
21861;DHT22;11095;48.066;8.540;2022-07-29T10:16:59;24.20;99.90
21861;DHT22;11095;48.066;8.540;2022-07-29T10:19:30;24.40;99.90
21861;DHT22;11095;48.066;8.540;2022-07-29T10:22:02;24.80;99.90
21861;DHT22;11095;48.066;8.540;2022-07-29T10:24:29;25.20;99.90
21861;DHT22;11095;48.066;8.540;2022-07-29T10:26:56;25.80;99.90
21861;DHT22;11095;48.066;8.540;2022-07-29T10:29:23;26.20;99.90
21861;DHT22;11095;48.066;8.540;2022-07-29T10:34:57;26.60;99.90
21861;DHT22;11095;48.066;8.540;2022-07-29T10:38:10;26.90;99.90
21861;DHT22;11095;48.066;8.540;2022-07-29T10:44:05;27.80;99.90
21861;DHT22;11095;48.066;8.540;2022-07-29T10:46:39;28.30;99.90
21861;DHT22;11095;48.066;8.540;2022-07-29T10:49:17;28.50;99.90
21861;DHT22;11095;48.066;8.540;2022-07-29T10:52:13;28.80;99.90
21861;DHT22;11095;48.066;8.540;2022-07-29T10:54:43;29.20;99.90
21861;DHT22;11095;48.066;8.540;2022-07-29T10:59:39;29.40;99.90
21861;DHT22;11095;48.066;8.540;2022-07-29T11:05:08;30.40;99.90
21861;DHT22;11095;48.066;8.540;2022-07-29T11:07:35;30.70;99.90
21861;DHT22;11095;48.066;8.540;2022-07-29T11:15:08;30.10;99.20
21861;DHT22;11095;48.066;8.540;2022-07-29T11:20:44;29.90;99.90
21861;DHT22;11095;48.066;8.540;2022-07-29T11:23:24;29.90;99.90
21861;DHT22;11095;48.066;8.540;2022-07-29T11:26:19;29.90;98.90
21861;DHT22;11095;48.066;8.540;2022-07-29T11:29:02;29.80;99.10
21861;DHT22;11095;48.066;8.540;2022-07-29T11:34:23;29.80;98.10
21861;DHT22;11095;48.066;8.540;2022-07-29T11:39:37;29.50;94.10
21861;DHT22;11095;48.066;8.540;2022-07-29T11:44:56;29.20;93.80
21861;DHT22;11095;48.066;8.540;2022-07-29T11:47:23;29.20;94.00
21861;DHT22;11095;48.066;8.540;2022-07-29T11:49:50;29.30;93.90
21861;DHT22;11095;48.066;8.540;2022-07-29T11:52:17;29.50;93.60
21861;DHT22;11095;48.066;8.540;2022-07-29T11:54:43;29.70;93.40
21861;DHT22;11095;48.066;8.540;2022-07-29T11:57:09;29.80;92.80
21861;DHT22;11095;48.066;8.540;2022-07-29T11:59:43;29.60;91.00
21861;DHT22;11095;48.066;8.540;2022-07-29T12:02:09;29.50;91.90
21861;DHT22;11095;48.066;8.540;2022-07-29T12:04:55;29.50;92.30
21861;DHT22;11095;48.066;8.540;2022-07-29T12:07:32;29.20;91.80
21861;DHT22;11095;48.066;8.540;2022-07-29T12:09:58;29.00;92.00
21861;DHT22;11095;48.066;8.540;2022-07-29T12:12:24;28.80;92.10
21861;DHT22;11095;48.066;8.540;2022-07-29T12:14:51;28.50;92.00
21861;DHT22;11095;48.066;8.540;2022-07-29T12:17:34;28.30;92.50
21861;DHT22;11095;48.066;8.540;2022-07-29T12:20:02;28.20;92.90
21861;DHT22;11095;48.066;8.540;2022-07-29T12:22:33;28.10;93.30
21861;DHT22;11095;48.066;8.540;2022-07-29T12:25:05;27.90;92.90
21861;DHT22;11095;48.066;8.540;2022-07-29T12:27:31;27.80;93.20
21861;DHT22;11095;48.066;8.540;2022-07-29T12:29:58;27.70;93.70
21861;DHT22;11095;48.066;8.540;2022-07-29T12:32:38;27.60;94.10
21861;DHT22;11095;48.066;8.540;2022-07-29T12:35:07;27.70;94.30
21861;DHT22;11095;48.066;8.540;2022-07-29T12:37:38;27.80;94.50
21861;DHT22;11095;48.066;8.540;2022-07-29T12:40:05;27.90;94.20
21861;DHT22;11095;48.066;8.540;2022-07-29T12:42:31;27.90;93.80
21861;DHT22;11095;48.066;8.540;2022-07-29T12:44:57;27.80;93.80
21861;DHT22;11095;48.066;8.540;2022-07-29T12:47:23;27.70;93.80
21861;DHT22;11095;48.066;8.540;2022-07-29T12:49:49;27.70;94.20
21861;DHT22;11095;48.066;8.540;2022-07-29T12:52:30;27.70;94.00
21861;DHT22;11095;48.066;8.540;2022-07-29T12:54:56;27.60;93.40
21861;DHT22;11095;48.066;8.540;2022-07-29T12:57:22;27.50;94.10
21861;DHT22;11095;48.066;8.540;2022-07-29T13:00:10;27.50;94.10
21861;DHT22;11095;48.066;8.540;2022-07-29T13:02:38;27.50;94.30
21861;DHT22;11095;48.066;8.540;2022-07-29T13:05:05;27.40;94.10
21861;DHT22;11095;48.066;8.540;2022-07-29T13:07:32;27.30;93.40
21861;DHT22;11095;48.066;8.540;2022-07-29T13:10:20;27.10;93.50
21861;DHT22;11095;48.066;8.540;2022-07-29T13:13:05;27.10;94.20
21861;DHT22;11095;48.066;8.540;2022-07-29T13:15:32;27.10;94.20
21861;DHT22;11095;48.066;8.540;2022-07-29T13:17:58;27.00;93.30
21861;DHT22;11095;48.066;8.540;2022-07-29T13:20:25;27.00;93.50
21861;DHT22;11095;48.066;8.540;2022-07-29T13:22:53;26.80;93.30
21861;DHT22;11095;48.066;8.540;2022-07-29T13:25:31;26.60;93.50
21861;DHT22;11095;48.066;8.540;2022-07-29T13:27:59;26.40;93.90
21861;DHT22;11095;48.066;8.540;2022-07-29T13:30:25;26.20;94.00
21861;DHT22;11095;48.066;8.540;2022-07-29T13:32:52;26.10;93.80
21861;DHT22;11095;48.066;8.540;2022-07-29T13:35:18;26.10;94.20
21861;DHT22;11095;48.066;8.540;2022-07-29T13:37:45;26.10;94.30
21861;DHT22;11095;48.066;8.540;2022-07-29T13:40:11;26.20;94.70
21861;DHT22;11095;48.066;8.540;2022-07-29T13:42:37;26.20;94.90
21861;DHT22;11095;48.066;8.540;2022-07-29T13:45:04;26.10;94.90
21861;DHT22;11095;48.066;8.540;2022-07-29T13:47:30;26.00;95.10
21861;DHT22;11095;48.066;8.540;2022-07-29T13:49:56;25.80;94.80
21861;DHT22;11095;48.066;8.540;2022-07-29T13:52:21;25.70;95.30
21861;DHT22;11095;48.066;8.540;2022-07-29T13:54:47;25.60;95.30
21861;DHT22;11095;48.066;8.540;2022-07-29T13:57:14;25.60;95.50
21861;DHT22;11095;48.066;8.540;2022-07-29T13:59:41;25.50;95.80
21861;DHT22;11095;48.066;8.540;2022-07-29T14:02:10;25.50;96.20
21861;DHT22;11095;48.066;8.540;2022-07-29T14:04:37;25.40;96.40
21861;DHT22;11095;48.066;8.540;2022-07-29T14:07:03;25.30;96.30
21861;DHT22;11095;48.066;8.540;2022-07-29T14:09:29;25.20;96.40
21861;DHT22;11095;48.066;8.540;2022-07-29T14:11:55;25.00;96.60
21861;DHT22;11095;48.066;8.540;2022-07-29T14:14:21;24.90;96.90
21861;DHT22;11095;48.066;8.540;2022-07-29T14:16:46;24.80;97.20
21861;DHT22;11095;48.066;8.540;2022-07-29T14:19:12;24.70;97.70
21861;DHT22;11095;48.066;8.540;2022-07-29T14:21:38;24.70;97.70
21861;DHT22;11095;48.066;8.540;2022-07-29T14:24:04;24.60;98.10
21861;DHT22;11095;48.066;8.540;2022-07-29T14:26:30;24.60;98.40
21861;DHT22;11095;48.066;8.540;2022-07-29T14:28:56;24.60;98.50
21861;DHT22;11095;48.066;8.540;2022-07-29T14:31:22;24.70;98.70
21861;DHT22;11095;48.066;8.540;2022-07-29T14:33:47;24.70;98.70
21861;DHT22;11095;48.066;8.540;2022-07-29T14:36:13;24.80;98.70
21861;DHT22;11095;48.066;8.540;2022-07-29T14:38:39;24.80;98.20
21861;DHT22;11095;48.066;8.540;2022-07-29T14:41:06;24.80;98.30
21861;DHT22;11095;48.066;8.540;2022-07-29T14:43:33;24.90;98.40
21861;DHT22;11095;48.066;8.540;2022-07-29T14:45:59;24.90;98.20
21861;DHT22;11095;48.066;8.540;2022-07-29T14:48:25;24.90;98.40
21861;DHT22;11095;48.066;8.540;2022-07-29T14:50:50;24.80;98.60
21861;DHT22;11095;48.066;8.540;2022-07-29T14:53:16;24.80;98.80
21861;DHT22;11095;48.066;8.540;2022-07-29T14:55:42;24.80;98.70
21861;DHT22;11095;48.066;8.540;2022-07-29T14:58:07;24.80;98.20
21861;DHT22;11095;48.066;8.540;2022-07-29T15:00:33;24.80;98.00
21861;DHT22;11095;48.066;8.540;2022-07-29T15:03:00;24.80;98.10
21861;DHT22;11095;48.066;8.540;2022-07-29T15:05:26;24.80;98.40
21861;DHT22;11095;48.066;8.540;2022-07-29T15:07:51;24.80;98.20
21861;DHT22;11095;48.066;8.540;2022-07-29T15:10:17;24.70;98.90
21861;DHT22;11095;48.066;8.540;2022-07-29T15:12:43;24.70;99.30
21861;DHT22;11095;48.066;8.540;2022-07-29T15:15:09;24.70;99.40
21861;DHT22;11095;48.066;8.540;2022-07-29T15:17:35;24.70;99.60
21861;DHT22;11095;48.066;8.540;2022-07-29T15:20:00;24.70;99.30
21861;DHT22;11095;48.066;8.540;2022-07-29T15:22:26;24.70;99.10
21861;DHT22;11095;48.066;8.540;2022-07-29T15:24:52;24.70;99.30
21861;DHT22;11095;48.066;8.540;2022-07-29T15:27:18;24.70;99.00
21861;DHT22;11095;48.066;8.540;2022-07-29T15:29:44;24.60;99.50
21861;DHT22;11095;48.066;8.540;2022-07-29T15:32:10;24.50;99.10
21861;DHT22;11095;48.066;8.540;2022-07-29T15:34:37;24.50;99.30
21861;DHT22;11095;48.066;8.540;2022-07-29T15:37:03;24.50;99.20
21861;DHT22;11095;48.066;8.540;2022-07-29T15:39:28;24.50;99.40
21861;DHT22;11095;48.066;8.540;2022-07-29T15:41:54;24.50;99.50
21861;DHT22;11095;48.066;8.540;2022-07-29T15:44:20;24.60;99.50
21861;DHT22;11095;48.066;8.540;2022-07-29T15:46:46;24.60;99.10
21861;DHT22;11095;48.066;8.540;2022-07-29T15:49:38;24.60;99.00
21861;DHT22;11095;48.066;8.540;2022-07-29T15:52:07;24.60;99.70
21861;DHT22;11095;48.066;8.540;2022-07-29T15:54:35;24.60;99.60
21861;DHT22;11095;48.066;8.540;2022-07-29T15:57:02;24.60;99.60
21861;DHT22;11095;48.066;8.540;2022-07-29T15:59:27;24.70;99.90
21861;DHT22;11095;48.066;8.540;2022-07-29T16:01:53;24.80;99.30
21861;DHT22;11095;48.066;8.540;2022-07-29T16:04:19;24.80;99.40
21861;DHT22;11095;48.066;8.540;2022-07-29T16:06:46;24.80;99.30
21861;DHT22;11095;48.066;8.540;2022-07-29T16:09:12;24.80;99.40
21861;DHT22;11095;48.066;8.540;2022-07-29T16:11:38;24.80;99.10
21861;DHT22;11095;48.066;8.540;2022-07-29T16:14:04;24.80;98.50
21861;DHT22;11095;48.066;8.540;2022-07-29T16:16:30;24.70;98.70
21861;DHT22;11095;48.066;8.540;2022-07-29T16:18:56;24.70;99.30
21861;DHT22;11095;48.066;8.540;2022-07-29T16:21:22;24.60;99.50
21861;DHT22;11095;48.066;8.540;2022-07-29T16:23:48;24.70;99.70
21861;DHT22;11095;48.066;8.540;2022-07-29T16:26:13;24.70;99.10